sensor_id;sensor_type;location;lat;lon;timestamp;temperature;humidity
14709;DHT22;7445;50.774;4.944;2023-02-07T11:22:56;4.00;99.90
14709;DHT22;7445;50.774;4.944;2023-02-07T11:25:41;4.10;99.90
14709;DHT22;7445;50.774;4.944;2023-02-07T11:28:17;4.20;99.90
14709;DHT22;7445;50.774;4.944;2023-02-07T11:30:46;4.30;99.90
14709;DHT22;7445;50.774;4.944;2023-02-07T11:33:20;4.40;99.90
14709;DHT22;7445;50.774;4.944;2023-02-07T11:38:39;4.40;99.90
14709;DHT22;7445;50.774;4.944;2023-02-07T11:41:05;4.50;99.90
14709;DHT22;7445;50.774;4.944;2023-02-07T11:43:33;4.40;99.90
14709;DHT22;7445;50.774;4.944;2023-02-07T11:46:04;4.50;99.90
14709;DHT22;7445;50.774;4.944;2023-02-07T11:48:34;4.40;99.90
14709;DHT22;7445;50.774;4.944;2023-02-07T11:51:02;4.40;99.90
14709;DHT22;7445;50.774;4.944;2023-02-07T11:53:51;4.50;99.90
14709;DHT22;7445;50.774;4.944;2023-02-07T11:56:32;4.60;99.90
14709;DHT22;7445;50.774;4.944;2023-02-07T11:59:05;4.60;99.90
14709;DHT22;7445;50.774;4.944;2023-02-07T12:01:33;4.60;99.90
14709;DHT22;7445;50.774;4.944;2023-02-07T12:04:07;4.60;99.90
14709;DHT22;7445;50.774;4.944;2023-02-07T12:06:48;4.60;99.90
14709;DHT22;7445;50.774;4.944;2023-02-07T12:09:45;4.70;99.90
14709;DHT22;7445;50.774;4.944;2023-02-07T12:12:38;4.80;99.90
14709;DHT22;7445;50.774;4.944;2023-02-07T12:15:14;4.80;99.90
14709;DHT22;7445;50.774;4.944;2023-02-07T12:20:22;4.70;99.90
14709;DHT22;7445;50.774;4.944;2023-02-07T12:25:47;4.70;99.90
14709;DHT22;7445;50.774;4.944;2023-02-07T12:28:36;4.80;99.90
14709;DHT22;7445;50.774;4.944;2023-02-07T12:31:24;4.70;99.90
14709;DHT22;7445;50.774;4.944;2023-02-07T12:34:11;4.70;99.90
14709;DHT22;7445;50.774;4.944;2023-02-07T12:36:42;4.80;99.90
14709;DHT22;7445;50.774;4.944;2023-02-07T12:39:28;4.80;99.90
14709;DHT22;7445;50.774;4.944;2023-02-07T12:44:36;4.80;99.90
14709;DHT22;7445;50.774;4.944;2023-02-07T12:47:09;4.80;99.90
14709;DHT22;7445;50.774;4.944;2023-02-07T13:01:45;4.80;99.90
14709;DHT22;7445;50.774;4.944;2023-02-07T13:04:33;5.00;99.90
14709;DHT22;7445;50.774;4.944;2023-02-07T13:09:47;4.90;99.90
14709;DHT22;7445;50.774;4.944;2023-02-07T13:15:17;4.90;99.90
14709;DHT22;7445;50.774;4.944;2023-02-07T13:17:49;4.80;99.90
14709;DHT22;7445;50.774;4.944;2023-02-07T13:22:54;4.80;99.90
14709;DHT22;7445;50.774;4.944;2023-02-07T13:25:24;4.80;99.90
14709;DHT22;7445;50.774;4.944;2023-02-07T13:27:53;4.80;99.90
14709;DHT22;7445;50.774;4.944;2023-02-07T13:30:20;4.90;99.90
14709;DHT22;7445;50.774;4.944;2023-02-07T13:32:47;4.80;99.90
14709;DHT22;7445;50.774;4.944;2023-02-07T13:43:48;4.90;99.90
14709;DHT22;7445;50.774;4.944;2023-02-07T13:48:59;4.90;99.90
14709;DHT22;7445;50.774;4.944;2023-02-07T13:54:21;4.90;99.90
14709;DHT22;7445;50.774;4.944;2023-02-07T13:56:56;4.90;99.90
14709;DHT22;7445;50.774;4.944;2023-02-07T13:59:41;4.90;99.90
14709;DHT22;7445;50.774;4.944;2023-02-07T14:02:25;4.90;99.90
14709;DHT22;7445;50.774;4.944;2023-02-07T14:04:55;4.90;99.90
14709;DHT22;7445;50.774;4.944;2023-02-07T14:07:26;4.90;99.90
14709;DHT22;7445;50.774;4.944;2023-02-07T14:09:56;4.90;99.90
14709;DHT22;7445;50.774;4.944;2023-02-07T14:12:26;4.90;99.90
14709;DHT22;7445;50.774;4.944;2023-02-07T14:14:53;4.90;99.90
14709;DHT22;7445;50.774;4.944;2023-02-07T14:19:54;4.90;99.90
14709;DHT22;7445;50.774;4.944;2023-02-07T14:22:24;4.90;99.90
14709;DHT22;7445;50.774;4.944;2023-02-07T14:25:12;4.90;99.90
14709;DHT22;7445;50.774;4.944;2023-02-07T14:27:41;4.90;99.90
14709;DHT22;7445;50.774;4.944;2023-02-07T14:36:04;4.80;99.90
14709;DHT22;7445;50.774;4.944;2023-02-07T14:41:04;4.80;99.90
14709;DHT22;7445;50.774;4.944;2023-02-07T14:43:52;4.70;99.90
14709;DHT22;7445;50.774;4.944;2023-02-07T14:46:29;4.70;99.90
14709;DHT22;7445;50.774;4.944;2023-02-07T14:49:11;4.70;99.90
14709;DHT22;7445;50.774;4.944;2023-02-07T14:51:47;4.70;99.90
14709;DHT22;7445;50.774;4.944;2023-02-07T14:54:15;4.70;99.90
14709;DHT22;7445;50.774;4.944;2023-02-07T14:57:06;4.60;99.90
14709;DHT22;7445;50.774;4.944;2023-02-07T14:59:57;4.60;99.90
14709;DHT22;7445;50.774;4.944;2023-02-07T15:04:53;4.60;99.90
14709;DHT22;7445;50.774;4.944;2023-02-07T15:07:18;4.50;99.90
14709;DHT22;7445;50.774;4.944;2023-02-07T15:09:44;4.60;99.90
14709;DHT22;7445;50.774;4.944;2023-02-07T15:12:18;4.70;99.90
14709;DHT22;7445;50.774;4.944;2023-02-07T15:14:45;4.70;99.90
14709;DHT22;7445;50.774;4.944;2023-02-07T15:17:11;4.70;99.90
14709;DHT22;7445;50.774;4.944;2023-02-07T15:19:39;4.60;99.90
14709;DHT22;7445;50.774;4.944;2023-02-07T15:22:06;4.60;99.90
14709;DHT22;7445;50.774;4.944;2023-02-07T15:24:40;4.60;99.90
14709;DHT22;7445;50.774;4.944;2023-02-07T15:27:19;4.60;99.90
14709;DHT22;7445;50.774;4.944;2023-02-07T15:29:54;4.60;99.90
14709;DHT22;7445;50.774;4.944;2023-02-07T15:32:22;4.60;99.90
14709;DHT22;7445;50.774;4.944;2023-02-07T15:34:47;4.60;99.90
14709;DHT22;7445;50.774;4.944;2023-02-07T15:37:18;4.60;99.90
14709;DHT22;7445;50.774;4.944;2023-02-07T15:39:44;4.50;99.90
14709;DHT22;7445;50.774;4.944;2023-02-07T15:42:15;4.40;99.90
14709;DHT22;7445;50.774;4.944;2023-02-07T15:44:47;4.40;99.90
14709;DHT22;7445;50.774;4.944;2023-02-07T15:47:34;4.30;99.90
14709;DHT22;7445;50.774;4.944;2023-02-07T15:52:48;4.30;99.90
14709;DHT22;7445;50.774;4.944;2023-02-07T15:55:45;4.30;99.90
14709;DHT22;7445;50.774;4.944;2023-02-07T15:58:24;4.20;99.90
14709;DHT22;7445;50.774;4.944;2023-02-07T16:00:51;4.20;99.90
14709;DHT22;7445;50.774;4.944;2023-02-07T16:03:29;4.10;99.90
14709;DHT22;7445;50.774;4.944;2023-02-07T16:06:17;4.20;99.90
14709;DHT22;7445;50.774;4.944;2023-02-07T16:08:46;4.10;99.90
14709;DHT22;7445;50.774;4.944;2023-02-07T16:14:20;4.00;99.90
14709;DHT22;7445;50.774;4.944;2023-02-07T16:16:53;4.00;99.90
14709;DHT22;7445;50.774;4.944;2023-02-07T16:19:29;3.90;99.90
14709;DHT22;7445;50.774;4.944;2023-02-07T16:22:25;3.90;99.90
14709;DHT22;7445;50.774;4.944;2023-02-07T16:24:51;3.90;99.90
14709;DHT22;7445;50.774;4.944;2023-02-07T16:27:20;3.80;99.90
14709;DHT22;7445;50.774;4.944;2023-02-07T16:29:48;3.80;99.90
14709;DHT22;7445;50.774;4.944;2023-02-07T16:32:13;3.60;99.90
14709;DHT22;7445;50.774;4.944;2023-02-07T16:34:40;3.50;99.90
14709;DHT22;7445;50.774;4.944;2023-02-07T16:37:06;3.50;99.90
14709;DHT22;7445;50.774;4.944;2023-02-07T16:39:33;3.50;99.90
14709;DHT22;7445;50.774;4.944;2023-02-07T16:42:05;3.50;99.90
14709;DHT22;7445;50.774;4.944;2023-02-07T16:44:33;3.30;99.90
14709;DHT22;7445;50.774;4.944;2023-02-07T16:46:59;3.20;99.90
14709;DHT22;7445;50.774;4.944;2023-02-07T16:49:26;3.20;99.90
14709;DHT22;7445;50.774;4.944;2023-02-07T16:51:53;3.10;99.90
14709;DHT22;7445;50.774;4.944;2023-02-07T16:54:20;3.00;99.90
14709;DHT22;7445;50.774;4.944;2023-02-07T16:56:47;2.90;99.90
14709;DHT22;7445;50.774;4.944;2023-02-07T16:59:15;2.80;99.90
14709;DHT22;7445;50.774;4.944;2023-02-07T17:01:43;2.70;99.90
14709;DHT22;7445;50.774;4.944;2023-02-07T17:04:10;2.70;99.90
14709;DHT22;7445;50.774;4.944;2023-02-07T17:06:37;2.70;99.90
14709;DHT22;7445;50.774;4.944;2023-02-07T17:11:39;2.60;99.90
14709;DHT22;7445;50.774;4.944;2023-02-07T17:14:04;2.60;99.90
14709;DHT22;7445;50.774;4.944;2023-02-07T17:16:30;2.60;99.90
14709;DHT22;7445;50.774;4.944;2023-02-07T17:18:57;2.70;99.90
14709;DHT22;7445;50.774;4.944;2023-02-07T17:21:23;2.80;99.90
14709;DHT22;7445;50.774;4.944;2023-02-07T17:23:49;2.80;99.90
14709;DHT22;7445;50.774;4.944;2023-02-07T17:28:43;2.90;99.90
14709;DHT22;7445;50.774;4.944;2023-02-07T17:31:11;2.90;99.90
14709;DHT22;7445;50.774;4.944;2023-02-07T17:33:38;2.90;99.90
14709;DHT22;7445;50.774;4.944;2023-02-07T17:36:04;2.90;99.90
14709;DHT22;7445;50.774;4.944;2023-02-07T17:38:30;2.90;99.90
14709;DHT22;7445;50.774;4.944;2023-02-07T17:40:56;2.90;99.90
14709;DHT22;7445;50.774;4.944;2023-02-07T17:43:24;2.90;99.90
14709;DHT22;7445;50.774;4.944;2023-02-07T17:45:50;2.80;99.90
14709;DHT22;7445;50.774;4.944;2023-02-07T17:48:16;2.80;99.90
14709;DHT22;7445;50.774;4.944;2023-02-07T17:50:43;2.70;99.90
14709;DHT22;7445;50.774;4.944;2023-02-07T17:53:09;2.70;99.90
14709;DHT22;7445;50.774;4.944;2023-02-07T17:55:36;2.60;99.90
14709;DHT22;7445;50.774;4.944;2023-02-07T17:58:03;2.50;99.90
14709;DHT22;7445;50.774;4.944;2023-02-07T18:00:34;2.50;99.90
14709;DHT22;7445;50.774;4.944;2023-02-07T18:03:02;2.50;99.90
14709;DHT22;7445;50.774;4.944;2023-02-07T18:05:28;2.50;99.90
14709;DHT22;7445;50.774;4.944;2023-02-07T18:07:54;2.40;99.90
14709;DHT22;7445;50.774;4.944;2023-02-07T18:10:23;2.30;99.90
14709;DHT22;7445;50.774;4.944;2023-02-07T18:12:49;2.30;99.90
14709;DHT22;7445;50.774;4.944;2023-02-07T18:15:15;2.30;99.90
14709;DHT22;7445;50.774;4.944;2023-02-07T18:17:44;2.10;99.90
14709;DHT22;7445;50.774;4.944;2023-02-07T18:20:15;2.00;99.90
14709;DHT22;7445;50.774;4.944;2023-02-07T18:22:41;2.00;99.90
14709;DHT22;7445;50.774;4.944;2023-02-07T18:25:06;1.80;99.90
14709;DHT22;7445;50.774;4.944;2023-02-07T18:27:33;1.80;99.90
14709;DHT22;7445;50.774;4.944;2023-02-07T18:29:59;1.80;99.90
14709;DHT22;7445;50.774;4.944;2023-02-07T18:32:25;1.70;99.90
14709;DHT22;7445;50.774;4.944;2023-02-07T18:34:51;1.70;99.90
14709;DHT22;7445;50.774;4.944;2023-02-07T18:37:17;1.70;99.90
14709;DHT22;7445;50.774;4.944;2023-02-07T18:39:43;1.70;99.90
14709;DHT22;7445;50.774;4.944;2023-02-07T18:42:08;1.60;99.90
14709;DHT22;7445;50.774;4.944;2023-02-07T18:44:34;1.60;99.90
14709;DHT22;7445;50.774;4.944;2023-02-07T18:46:59;1.50;99.90
14709;DHT22;7445;50.774;4.944;2023-02-07T18:49:25;1.40;99.90
14709;DHT22;7445;50.774;4.944;2023-02-07T18:51:52;1.40;99.90
14709;DHT22;7445;50.774;4.944;2023-02-07T18:54:18;1.30;99.90
14709;DHT22;7445;50.774;4.944;2023-02-07T18:56:44;1.30;99.90
14709;DHT22;7445;50.774;4.944;2023-02-07T18:59:20;1.30;99.90
14709;DHT22;7445;50.774;4.944;2023-02-07T19:01:46;1.30;99.90
14709;DHT22;7445;50.774;4.944;2023-02-07T19:04:16;1.30;99.90
14709;DHT22;7445;50.774;4.944;2023-02-07T19:06:44;1.30;99.90
14709;DHT22;7445;50.774;4.944;2023-02-07T19:09:10;1.20;99.90
14709;DHT22;7445;50.774;4.944;2023-02-07T19:11:38;1.20;99.90
14709;DHT22;7445;50.774;4.944;2023-02-07T19:14:12;1.20;99.90
14709;DHT22;7445;50.774;4.944;2023-02-07T19:16:38;1.20;99.90
14709;DHT22;7445;50.774;4.944;2023-02-07T19:19:04;1.10;99.90
14709;DHT22;7445;50.774;4.944;2023-02-07T19:21:29;1.00;99.90
14709;DHT22;7445;50.774;4.944;2023-02-07T19:23:56;0.90;99.90
14709;DHT22;7445;50.774;4.944;2023-02-07T19:26:23;0.80;99.90
14709;DHT22;7445;50.774;4.944;2023-02-07T19:28:50;0.70;99.90
14709;DHT22;7445;50.774;4.944;2023-02-07T19:31:17;0.60;99.90
14709;DHT22;7445;50.774;4.944;2023-02-07T19:33:45;0.60;99.90
14709;DHT22;7445;50.774;4.944;2023-02-07T19:36:15;0.50;99.90
14709;DHT22;7445;50.774;4.944;2023-02-07T19:38:41;0.50;99.90
14709;DHT22;7445;50.774;4.944;2023-02-07T19:41:07;0.40;99.90
14709;DHT22;7445;50.774;4.944;2023-02-07T19:43:33;0.40;99.90
14709;DHT22;7445;50.774;4.944;2023-02-07T19:45:59;0.30;99.90
14709;DHT22;7445;50.774;4.944;2023-02-07T19:48:25;0.30;99.90
14709;DHT22;7445;50.774;4.944;2023-02-07T19:50:59;0.30;99.90
14709;DHT22;7445;50.774;4.944;2023-02-07T19:53:27;0.30;99.90
14709;DHT22;7445;50.774;4.944;2023-02-07T19:55:53;0.30;99.90
14709;DHT22;7445;50.774;4.944;2023-02-07T19:58:23;0.30;99.90
14709;DHT22;7445;50.774;4.944;2023-02-07T20:00:49;0.20;99.90
14709;DHT22;7445;50.774;4.944;2023-02-07T20:03:14;0.20;99.90
14709;DHT22;7445;50.774;4.944;2023-02-07T20:05:44;0.30;99.90
14709;DHT22;7445;50.774;4.944;2023-02-07T20:08:09;0.40;99.90
14709;DHT22;7445;50.774;4.944;2023-02-07T20:10:41;0.50;99.90
14709;DHT22;7445;50.774;4.944;2023-02-07T20:13:07;0.50;99.90
14709;DHT22;7445;50.774;4.944;2023-02-07T20:15:32;0.50;99.90
14709;DHT22;7445;50.774;4.944;2023-02-07T20:17:58;0.60;99.90
14709;DHT22;7445;50.774;4.944;2023-02-07T20:20:23;0.60;99.90
14709;DHT22;7445;50.774;4.944;2023-02-07T20:22:52;0.50;99.90
14709;DHT22;7445;50.774;4.944;2023-02-07T20:25:17;0.50;99.90
14709;DHT22;7445;50.774;4.944;2023-02-07T20:27:43;0.40;99.90
14709;DHT22;7445;50.774;4.944;2023-02-07T20:30:09;0.40;99.90
14709;DHT22;7445;50.774;4.944;2023-02-07T20:32:35;0.30;99.90
14709;DHT22;7445;50.774;4.944;2023-02-07T20:35:00;0.30;99.90
14709;DHT22;7445;50.774;4.944;2023-02-07T20:37:26;0.30;99.90
14709;DHT22;7445;50.774;4.944;2023-02-07T20:39:51;0.30;99.90
14709;DHT22;7445;50.774;4.944;2023-02-07T20:42:17;0.40;99.90
14709;DHT22;7445;50.774;4.944;2023-02-07T20:44:43;0.50;99.90
14709;DHT22;7445;50.774;4.944;2023-02-07T20:47:10;0.50;99.90
14709;DHT22;7445;50.774;4.944;2023-02-07T20:49:36;0.40;99.90
14709;DHT22;7445;50.774;4.944;2023-02-07T20:52:02;0.30;99.90
14709;DHT22;7445;50.774;4.944;2023-02-07T20:54:29;0.30;99.90
14709;DHT22;7445;50.774;4.944;2023-02-07T20:56:56;0.30;99.90
14709;DHT22;7445;50.774;4.944;2023-02-07T20:59:31;0.30;99.90
14709;DHT22;7445;50.774;4.944;2023-02-07T21:01:57;0.30;99.90
14709;DHT22;7445;50.774;4.944;2023-02-07T21:04:24;0.30;99.90
14709;DHT22;7445;50.774;4.944;2023-02-07T21:06:50;0.30;99.90
14709;DHT22;7445;50.774;4.944;2023-02-07T21:09:17;0.30;99.90
14709;DHT22;7445;50.774;4.944;2023-02-07T21:11:48;0.20;99.90
14709;DHT22;7445;50.774;4.944;2023-02-07T21:14:17;0.20;99.90
14709;DHT22;7445;50.774;4.944;2023-02-07T21:16:43;0.20;99.90
14709;DHT22;7445;50.774;4.944;2023-02-07T21:19:09;0.30;99.90
14709;DHT22;7445;50.774;4.944;2023-02-07T21:21:36;0.30;99.90
14709;DHT22;7445;50.774;4.944;2023-02-07T21:24:01;0.30;99.90
14709;DHT22;7445;50.774;4.944;2023-02-07T21:26:27;0.30;99.90
14709;DHT22;7445;50.774;4.944;2023-02-07T21:28:58;0.30;99.90
14709;DHT22;7445;50.774;4.944;2023-02-07T21:31:24;0.30;99.90
14709;DHT22;7445;50.774;4.944;2023-02-07T21:33:50;0.30;99.90
14709;DHT22;7445;50.774;4.944;2023-02-07T21:36:36;0.30;99.90
14709;DHT22;7445;50.774;4.944;2023-02-07T21:39:07;0.20;99.90
14709;DHT22;7445;50.774;4.944;2023-02-07T21:41:36;0.20;99.90
14709;DHT22;7445;50.774;4.944;2023-02-07T21:44:03;0.00;99.90
14709;DHT22;7445;50.774;4.944;2023-02-07T21:46:32;-0.10;99.90
14709;DHT22;7445;50.774;4.944;2023-02-07T21:49:01;0.00;99.90
14709;DHT22;7445;50.774;4.944;2023-02-07T21:51:29;-0.10;99.90
14709;DHT22;7445;50.774;4.944;2023-02-07T21:53:56;-0.10;99.90
14709;DHT22;7445;50.774;4.944;2023-02-07T21:56:26;-0.20;99.90
14709;DHT22;7445;50.774;4.944;2023-02-07T21:58:54;-0.30;99.90
14709;DHT22;7445;50.774;4.944;2023-02-07T22:01:21;-0.30;99.90
14709;DHT22;7445;50.774;4.944;2023-02-07T22:03:48;-0.30;99.90
14709;DHT22;7445;50.774;4.944;2023-02-07T22:06:15;-0.30;99.90
14709;DHT22;7445;50.774;4.944;2023-02-07T22:08:46;-0.30;99.90
14709;DHT22;7445;50.774;4.944;2023-02-07T22:11:12;-0.30;99.90
14709;DHT22;7445;50.774;4.944;2023-02-07T22:13:39;-0.30;99.90
14709;DHT22;7445;50.774;4.944;2023-02-07T22:16:10;-0.30;99.90
14709;DHT22;7445;50.774;4.944;2023-02-07T22:18:36;-0.30;99.90
14709;DHT22;7445;50.774;4.944;2023-02-07T22:21:04;-0.40;99.90
14709;DHT22;7445;50.774;4.944;2023-02-07T22:23:30;-0.50;99.90
14709;DHT22;7445;50.774;4.944;2023-02-07T22:25:57;-0.60;99.90
14709;DHT22;7445;50.774;4.944;2023-02-07T22:28:23;-0.60;99.90
14709;DHT22;7445;50.774;4.944;2023-02-07T22:30:48;-0.50;99.90
14709;DHT22;7445;50.774;4.944;2023-02-07T22:33:16;-0.50;99.90
